sensor_id;sensor_type;location;lat;lon;timestamp;P1;durP1;ratioP1;P2;durP2;ratioP2
67861;SDS011;54665;51.462;6.698;2022-11-15T00:01:52;13.07;;;6.65;;
67861;SDS011;54665;51.462;6.698;2022-11-15T00:04:36;13.07;;;6.35;;
67861;SDS011;54665;51.462;6.698;2022-11-15T00:07:20;13.60;;;6.57;;
67861;SDS011;54665;51.462;6.698;2022-11-15T00:10:04;12.95;;;6.50;;
67861;SDS011;54665;51.462;6.698;2022-11-15T00:12:48;12.57;;;6.72;;
67861;SDS011;54665;51.462;6.698;2022-11-15T00:15:34;13.57;;;7.10;;
67861;SDS011;54665;51.462;6.698;2022-11-15T00:18:22;13.77;;;6.63;;
67861;SDS011;54665;51.462;6.698;2022-11-15T00:21:07;13.53;;;6.43;;
67861;SDS011;54665;51.462;6.698;2022-11-15T00:23:53;11.93;;;6.70;;
67861;SDS011;54665;51.462;6.698;2022-11-15T00:26:37;13.32;;;6.95;;
67861;SDS011;54665;51.462;6.698;2022-11-15T00:29:21;14.10;;;6.40;;
67861;SDS011;54665;51.462;6.698;2022-11-15T00:32:06;16.55;;;6.88;;
67861;SDS011;54665;51.462;6.698;2022-11-15T00:34:50;16.13;;;6.80;;
67861;SDS011;54665;51.462;6.698;2022-11-15T00:37:34;15.88;;;6.97;;
67861;SDS011;54665;51.462;6.698;2022-11-15T00:40:18;12.80;;;6.85;;
67861;SDS011;54665;51.462;6.698;2022-11-15T00:43:02;16.58;;;7.05;;
67861;SDS011;54665;51.462;6.698;2022-11-15T00:45:46;14.98;;;6.57;;
67861;SDS011;54665;51.462;6.698;2022-11-15T00:48:30;14.93;;;6.97;;
67861;SDS011;54665;51.462;6.698;2022-11-15T00:51:15;14.00;;;6.60;;
67861;SDS011;54665;51.462;6.698;2022-11-15T00:53:59;15.20;;;7.00;;
67861;SDS011;54665;51.462;6.698;2022-11-15T00:56:43;15.40;;;6.68;;
67861;SDS011;54665;51.462;6.698;2022-11-15T00:59:27;14.20;;;6.75;;
67861;SDS011;54665;51.462;6.698;2022-11-15T01:02:11;13.77;;;6.47;;
67861;SDS011;54665;51.462;6.698;2022-11-15T01:04:55;13.05;;;6.68;;
67861;SDS011;54665;51.462;6.698;2022-11-15T01:07:39;14.95;;;6.80;;
67861;SDS011;54665;51.462;6.698;2022-11-15T01:10:23;12.45;;;6.47;;
67861;SDS011;54665;51.462;6.698;2022-11-15T01:13:09;14.30;;;6.78;;
67861;SDS011;54665;51.462;6.698;2022-11-15T01:15:53;13.03;;;6.90;;
67861;SDS011;54665;51.462;6.698;2022-11-15T01:18:37;13.32;;;6.78;;
67861;SDS011;54665;51.462;6.698;2022-11-15T01:21:21;14.68;;;6.97;;
67861;SDS011;54665;51.462;6.698;2022-11-15T01:24:06;14.02;;;6.78;;
67861;SDS011;54665;51.462;6.698;2022-11-15T01:26:54;13.50;;;6.43;;
67861;SDS011;54665;51.462;6.698;2022-11-15T01:29:38;17.07;;;6.70;;
67861;SDS011;54665;51.462;6.698;2022-11-15T01:32:22;11.50;;;6.13;;
67861;SDS011;54665;51.462;6.698;2022-11-15T01:35:06;16.75;;;6.88;;
67861;SDS011;54665;51.462;6.698;2022-11-15T01:37:51;14.63;;;6.80;;
67861;SDS011;54665;51.462;6.698;2022-11-15T01:40:35;12.95;;;6.82;;
67861;SDS011;54665;51.462;6.698;2022-11-15T01:49:14;12.63;;;6.93;;
67861;SDS011;54665;51.462;6.698;2022-11-15T01:52:02;15.60;;;6.70;;
67861;SDS011;54665;51.462;6.698;2022-11-15T01:54:50;15.40;;;6.85;;
67861;SDS011;54665;51.462;6.698;2022-11-15T01:57:39;14.57;;;6.83;;
67861;SDS011;54665;51.462;6.698;2022-11-15T02:00:26;14.20;;;6.82;;
67861;SDS011;54665;51.462;6.698;2022-11-15T02:03:10;14.25;;;6.57;;
67861;SDS011;54665;51.462;6.698;2022-11-15T02:05:55;15.90;;;6.95;;
67861;SDS011;54665;51.462;6.698;2022-11-15T02:08:39;14.95;;;7.20;;
67861;SDS011;54665;51.462;6.698;2022-11-15T02:11:23;12.30;;;6.57;;
67861;SDS011;54665;51.462;6.698;2022-11-15T02:14:06;14.57;;;7.22;;
67861;SDS011;54665;51.462;6.698;2022-11-15T02:22:51;13.95;;;6.80;;
67861;SDS011;54665;51.462;6.698;2022-11-15T02:26:04;11.23;;;6.53;;
67861;SDS011;54665;51.462;6.698;2022-11-15T02:32:06;12.93;;;6.55;;
67861;SDS011;54665;51.462;6.698;2022-11-15T02:35:02;16.23;;;6.90;;
67861;SDS011;54665;51.462;6.698;2022-11-15T02:41:11;13.20;;;6.50;;
67861;SDS011;54665;51.462;6.698;2022-11-15T02:46:53;13.80;;;6.35;;
67861;SDS011;54665;51.462;6.698;2022-11-15T02:50:00;15.45;;;6.47;;
67861;SDS011;54665;51.462;6.698;2022-11-15T02:52:49;13.43;;;6.05;;
67861;SDS011;54665;51.462;6.698;2022-11-15T02:55:38;12.53;;;6.20;;
67861;SDS011;54665;51.462;6.698;2022-11-15T02:58:48;12.93;;;6.40;;
67861;SDS011;54665;51.462;6.698;2022-11-15T03:05:10;11.68;;;6.32;;
67861;SDS011;54665;51.462;6.698;2022-11-15T03:10:59;12.07;;;6.00;;
67861;SDS011;54665;51.462;6.698;2022-11-15T03:14:25;14.48;;;6.38;;
67861;SDS011;54665;51.462;6.698;2022-11-15T03:17:12;12.50;;;6.13;;
67861;SDS011;54665;51.462;6.698;2022-11-15T03:20:03;11.85;;;5.80;;
67861;SDS011;54665;51.462;6.698;2022-11-15T03:22:49;11.82;;;6.13;;
67861;SDS011;54665;51.462;6.698;2022-11-15T03:25:35;13.00;;;6.30;;
67861;SDS011;54665;51.462;6.698;2022-11-15T03:28:32;14.25;;;6.47;;
67861;SDS011;54665;51.462;6.698;2022-11-15T03:31:21;13.32;;;6.60;;
67861;SDS011;54665;51.462;6.698;2022-11-15T03:34:34;12.82;;;6.78;;
67861;SDS011;54665;51.462;6.698;2022-11-15T03:37:24;13.10;;;6.53;;
67861;SDS011;54665;51.462;6.698;2022-11-15T03:40:16;12.70;;;6.60;;
67861;SDS011;54665;51.462;6.698;2022-11-15T03:43:29;11.68;;;6.60;;
67861;SDS011;54665;51.462;6.698;2022-11-15T03:46:19;12.70;;;6.72;;
67861;SDS011;54665;51.462;6.698;2022-11-15T03:49:10;16.42;;;6.45;;
67861;SDS011;54665;51.462;6.698;2022-11-15T03:51:59;13.25;;;6.38;;
67861;SDS011;54665;51.462;6.698;2022-11-15T03:54:48;12.70;;;6.13;;
67861;SDS011;54665;51.462;6.698;2022-11-15T03:57:34;12.23;;;6.45;;
67861;SDS011;54665;51.462;6.698;2022-11-15T04:00:18;14.13;;;6.57;;
67861;SDS011;54665;51.462;6.698;2022-11-15T04:03:02;12.50;;;6.35;;
67861;SDS011;54665;51.462;6.698;2022-11-15T04:05:46;12.25;;;6.60;;
67861;SDS011;54665;51.462;6.698;2022-11-15T04:08:30;15.07;;;6.20;;
67861;SDS011;54665;51.462;6.698;2022-11-15T04:11:14;12.43;;;6.38;;
67861;SDS011;54665;51.462;6.698;2022-11-15T04:13:58;13.30;;;5.90;;
67861;SDS011;54665;51.462;6.698;2022-11-15T04:16:42;10.35;;;5.63;;
67861;SDS011;54665;51.462;6.698;2022-11-15T04:19:26;13.35;;;6.68;;
67861;SDS011;54665;51.462;6.698;2022-11-15T04:22:29;10.40;;;5.83;;
67861;SDS011;54665;51.462;6.698;2022-11-15T04:25:32;12.57;;;6.25;;
67861;SDS011;54665;51.462;6.698;2022-11-15T04:28:17;11.02;;;5.65;;
67861;SDS011;54665;51.462;6.698;2022-11-15T04:31:01;12.48;;;6.15;;
67861;SDS011;54665;51.462;6.698;2022-11-15T04:33:45;11.98;;;6.07;;
67861;SDS011;54665;51.462;6.698;2022-11-15T04:36:29;11.77;;;5.90;;
67861;SDS011;54665;51.462;6.698;2022-11-15T04:39:32;14.05;;;6.28;;
67861;SDS011;54665;51.462;6.698;2022-11-15T04:42:16;10.82;;;6.20;;
67861;SDS011;54665;51.462;6.698;2022-11-15T04:45:00;10.88;;;5.47;;
67861;SDS011;54665;51.462;6.698;2022-11-15T04:47:44;12.30;;;5.97;;
67861;SDS011;54665;51.462;6.698;2022-11-15T04:50:29;11.90;;;5.70;;
67861;SDS011;54665;51.462;6.698;2022-11-15T04:53:13;9.90;;;5.55;;
67861;SDS011;54665;51.462;6.698;2022-11-15T04:55:57;10.93;;;5.85;;
67861;SDS011;54665;51.462;6.698;2022-11-15T04:58:41;17.30;;;6.18;;
67861;SDS011;54665;51.462;6.698;2022-11-15T05:01:25;12.15;;;5.80;;
67861;SDS011;54665;51.462;6.698;2022-11-15T05:04:09;14.40;;;5.90;;
67861;SDS011;54665;51.462;6.698;2022-11-15T05:07:02;12.25;;;5.85;;
67861;SDS011;54665;51.462;6.698;2022-11-15T05:09:49;11.50;;;5.97;;
67861;SDS011;54665;51.462;6.698;2022-11-15T05:12:33;13.52;;;5.80;;
67861;SDS011;54665;51.462;6.698;2022-11-15T05:15:18;13.05;;;5.82;;
67861;SDS011;54665;51.462;6.698;2022-11-15T05:18:02;11.70;;;5.60;;
67861;SDS011;54665;51.462;6.698;2022-11-15T05:20:46;12.52;;;5.60;;
67861;SDS011;54665;51.462;6.698;2022-11-15T05:23:30;10.20;;;5.30;;
67861;SDS011;54665;51.462;6.698;2022-11-15T05:26:15;11.30;;;5.13;;
67861;SDS011;54665;51.462;6.698;2022-11-15T05:29:00;10.77;;;5.20;;
67861;SDS011;54665;51.462;6.698;2022-11-15T05:31:44;8.60;;;4.70;;
67861;SDS011;54665;51.462;6.698;2022-11-15T05:34:28;7.93;;;4.63;;
67861;SDS011;54665;51.462;6.698;2022-11-15T05:37:12;9.38;;;4.97;;
67861;SDS011;54665;51.462;6.698;2022-11-15T05:39:57;8.38;;;4.55;;
67861;SDS011;54665;51.462;6.698;2022-11-15T05:42:41;10.75;;;4.88;;
67861;SDS011;54665;51.462;6.698;2022-11-15T05:45:25;11.13;;;5.37;;
67861;SDS011;54665;51.462;6.698;2022-11-15T05:48:10;9.60;;;5.20;;
67861;SDS011;54665;51.462;6.698;2022-11-15T05:50:53;9.93;;;5.25;;
67861;SDS011;54665;51.462;6.698;2022-11-15T05:53:38;13.63;;;5.22;;
67861;SDS011;54665;51.462;6.698;2022-11-15T05:56:22;10.75;;;4.95;;
67861;SDS011;54665;51.462;6.698;2022-11-15T05:59:06;10.53;;;4.90;;
67861;SDS011;54665;51.462;6.698;2022-11-15T06:01:51;8.70;;;4.93;;
67861;SDS011;54665;51.462;6.698;2022-11-15T06:04:35;9.50;;;5.28;;
67861;SDS011;54665;51.462;6.698;2022-11-15T06:07:20;11.25;;;5.57;;
67861;SDS011;54665;51.462;6.698;2022-11-15T06:10:04;11.73;;;5.57;;
67861;SDS011;54665;51.462;6.698;2022-11-15T06:12:55;11.70;;;5.40;;
67861;SDS011;54665;51.462;6.698;2022-11-15T06:15:48;12.02;;;5.85;;
67861;SDS011;54665;51.462;6.698;2022-11-15T06:18:33;10.05;;;5.50;;
67861;SDS011;54665;51.462;6.698;2022-11-15T06:21:18;12.40;;;6.13;;
67861;SDS011;54665;51.462;6.698;2022-11-15T06:24:02;11.65;;;5.78;;
67861;SDS011;54665;51.462;6.698;2022-11-15T06:26:46;10.63;;;5.00;;
67861;SDS011;54665;51.462;6.698;2022-11-15T06:29:30;10.75;;;5.45;;
67861;SDS011;54665;51.462;6.698;2022-11-15T06:32:14;12.00;;;5.70;;
67861;SDS011;54665;51.462;6.698;2022-11-15T06:34:58;11.88;;;5.70;;
67861;SDS011;54665;51.462;6.698;2022-11-15T06:37:42;10.73;;;5.65;;
67861;SDS011;54665;51.462;6.698;2022-11-15T06:40:26;11.57;;;5.63;;
67861;SDS011;54665;51.462;6.698;2022-11-15T06:43:10;11.55;;;5.65;;
67861;SDS011;54665;51.462;6.698;2022-11-15T06:45:54;11.43;;;5.40;;
67861;SDS011;54665;51.462;6.698;2022-11-15T06:48:38;10.40;;;5.10;;
67861;SDS011;54665;51.462;6.698;2022-11-15T06:51:22;9.75;;;5.18;;
67861;SDS011;54665;51.462;6.698;2022-11-15T06:54:06;8.70;;;4.90;;
67861;SDS011;54665;51.462;6.698;2022-11-15T06:56:50;10.77;;;5.25;;
67861;SDS011;54665;51.462;6.698;2022-11-15T06:59:34;12.20;;;5.10;;
67861;SDS011;54665;51.462;6.698;2022-11-15T07:02:18;10.05;;;5.18;;
67861;SDS011;54665;51.462;6.698;2022-11-15T07:05:02;10.25;;;5.05;;
67861;SDS011;54665;51.462;6.698;2022-11-15T07:07:50;8.80;;;4.90;;
67861;SDS011;54665;51.462;6.698;2022-11-15T07:10:36;8.60;;;4.57;;
67861;SDS011;54665;51.462;6.698;2022-11-15T07:13:19;8.60;;;4.43;;
67861;SDS011;54665;51.462;6.698;2022-11-15T07:16:08;9.85;;;4.60;;
67861;SDS011;54665;51.462;6.698;2022-11-15T07:18:53;9.73;;;4.60;;
67861;SDS011;54665;51.462;6.698;2022-11-15T07:21:37;10.13;;;4.70;;
67861;SDS011;54665;51.462;6.698;2022-11-15T07:24:22;9.32;;;4.47;;
67861;SDS011;54665;51.462;6.698;2022-11-15T07:27:05;7.18;;;3.80;;
67861;SDS011;54665;51.462;6.698;2022-11-15T07:29:50;7.97;;;4.05;;
67861;SDS011;54665;51.462;6.698;2022-11-15T07:32:34;8.57;;;4.00;;
67861;SDS011;54665;51.462;6.698;2022-11-15T07:35:18;10.13;;;4.00;;
67861;SDS011;54665;51.462;6.698;2022-11-15T07:38:03;8.38;;;4.20;;
67861;SDS011;54665;51.462;6.698;2022-11-15T07:40:55;9.20;;;3.85;;
67861;SDS011;54665;51.462;6.698;2022-11-15T07:43:46;6.63;;;3.50;;
67861;SDS011;54665;51.462;6.698;2022-11-15T07:46:30;6.05;;;3.00;;
67861;SDS011;54665;51.462;6.698;2022-11-15T07:49:14;7.10;;;3.37;;
67861;SDS011;54665;51.462;6.698;2022-11-15T07:51:58;5.95;;;2.83;;
67861;SDS011;54665;51.462;6.698;2022-11-15T07:54:42;6.57;;;2.40;;
67861;SDS011;54665;51.462;6.698;2022-11-15T07:57:26;7.20;;;2.90;;
67861;SDS011;54665;51.462;6.698;2022-11-15T08:00:10;5.50;;;2.47;;
67861;SDS011;54665;51.462;6.698;2022-11-15T08:03:02;8.03;;;2.30;;
67861;SDS011;54665;51.462;6.698;2022-11-15T08:05:49;4.28;;;1.70;;
67861;SDS011;54665;51.462;6.698;2022-11-15T08:08:34;6.97;;;1.75;;
67861;SDS011;54665;51.462;6.698;2022-11-15T08:11:19;5.97;;;1.60;;
67861;SDS011;54665;51.462;6.698;2022-11-15T08:14:03;5.57;;;1.52;;
67861;SDS011;54665;51.462;6.698;2022-11-15T08:16:47;2.97;;;0.90;;
67861;SDS011;54665;51.462;6.698;2022-11-15T08:19:31;3.45;;;0.93;;
67861;SDS011;54665;51.462;6.698;2022-11-15T08:22:15;2.95;;;0.98;;
67861;SDS011;54665;51.462;6.698;2022-11-15T08:25:00;3.78;;;1.00;;
67861;SDS011;54665;51.462;6.698;2022-11-15T08:27:44;3.35;;;1.27;;
67861;SDS011;54665;51.462;6.698;2022-11-15T08:30:28;5.60;;;1.00;;
67861;SDS011;54665;51.462;6.698;2022-11-15T08:33:13;2.58;;;1.00;;
67861;SDS011;54665;51.462;6.698;2022-11-15T08:35:58;2.53;;;1.30;;
67861;SDS011;54665;51.462;6.698;2022-11-15T08:38:43;2.70;;;1.30;;
67861;SDS011;54665;51.462;6.698;2022-11-15T08:41:31;3.25;;;1.33;;
67861;SDS011;54665;51.462;6.698;2022-11-15T08:44:17;3.60;;;1.60;;
67861;SDS011;54665;51.462;6.698;2022-11-15T08:47:01;4.35;;;2.03;;
67861;SDS011;54665;51.462;6.698;2022-11-15T08:49:45;4.80;;;1.75;;
67861;SDS011;54665;51.462;6.698;2022-11-15T08:52:29;4.88;;;1.83;;
67861;SDS011;54665;51.462;6.698;2022-11-15T08:55:13;3.78;;;1.73;;
67861;SDS011;54665;51.462;6.698;2022-11-15T08:57:58;7.53;;;2.40;;
67861;SDS011;54665;51.462;6.698;2022-11-15T09:00:42;6.38;;;2.40;;
67861;SDS011;54665;51.462;6.698;2022-11-15T09:03:26;7.55;;;3.00;;
67861;SDS011;54665;51.462;6.698;2022-11-15T09:06:10;6.30;;;2.85;;
67861;SDS011;54665;51.462;6.698;2022-11-15T09:08:54;6.80;;;2.60;;
67861;SDS011;54665;51.462;6.698;2022-11-15T09:11:38;6.47;;;2.47;;
67861;SDS011;54665;51.462;6.698;2022-11-15T09:14:22;6.10;;;2.13;;
67861;SDS011;54665;51.462;6.698;2022-11-15T09:17:09;5.05;;;1.95;;
67861;SDS011;54665;51.462;6.698;2022-11-15T09:19:53;3.95;;;1.50;;
67861;SDS011;54665;51.462;6.698;2022-11-15T09:22:37;5.65;;;2.10;;
67861;SDS011;54665;51.462;6.698;2022-11-15T09:25:22;3.87;;;2.00;;
67861;SDS011;54665;51.462;6.698;2022-11-15T09:28:06;5.95;;;2.60;;
67861;SDS011;54665;51.462;6.698;2022-11-15T09:30:51;5.35;;;2.65;;
67861;SDS011;54665;51.462;6.698;2022-11-15T09:33:35;5.35;;;2.83;;
67861;SDS011;54665;51.462;6.698;2022-11-15T09:36:19;5.72;;;2.78;;
67861;SDS011;54665;51.462;6.698;2022-11-15T09:39:03;5.50;;;3.00;;
67861;SDS011;54665;51.462;6.698;2022-11-15T09:45:32;6.28;;;2.60;;
67861;SDS011;54665;51.462;6.698;2022-11-15T09:51:38;7.07;;;3.22;;
67861;SDS011;54665;51.462;6.698;2022-11-15T09:54:16;8.17;;;3.40;;
67861;SDS011;54665;51.462;6.698;2022-11-15T09:56:55;7.30;;;3.30;;
67861;SDS011;54665;51.462;6.698;2022-11-15T10:02:30;6.88;;;3.40;;
67861;SDS011;54665;51.462;6.698;2022-11-15T10:05:11;7.72;;;3.55;;
67861;SDS011;54665;51.462;6.698;2022-11-15T10:10:25;5.15;;;2.72;;
67861;SDS011;54665;51.462;6.698;2022-11-15T10:12:56;4.68;;;2.70;;
67861;SDS011;54665;51.462;6.698;2022-11-15T10:15:22;6.07;;;2.30;;
67861;SDS011;54665;51.462;6.698;2022-11-15T10:17:55;5.17;;;2.80;;
67861;SDS011;54665;51.462;6.698;2022-11-15T10:20:49;7.30;;;2.60;;
67861;SDS011;54665;51.462;6.698;2022-11-15T10:23:18;4.60;;;2.40;;
67861;SDS011;54665;51.462;6.698;2022-11-15T10:25:46;5.28;;;2.50;;
67861;SDS011;54665;51.462;6.698;2022-11-15T10:28:21;7.57;;;2.20;;
67861;SDS011;54665;51.462;6.698;2022-11-15T10:30:51;3.92;;;2.00;;
67861;SDS011;54665;51.462;6.698;2022-11-15T10:41:13;3.85;;;1.92;;
67861;SDS011;54665;51.462;6.698;2022-11-15T10:43:39;3.63;;;1.70;;
67861;SDS011;54665;51.462;6.698;2022-11-15T10:46:23;3.83;;;1.43;;
67861;SDS011;54665;51.462;6.698;2022-11-15T10:48:49;4.25;;;1.15;;
67861;SDS011;54665;51.462;6.698;2022-11-15T10:51:25;2.38;;;1.17;;
67861;SDS011;54665;51.462;6.698;2022-11-15T10:53:56;3.40;;;1.40;;
67861;SDS011;54665;51.462;6.698;2022-11-15T10:56:24;3.90;;;1.20;;
67861;SDS011;54665;51.462;6.698;2022-11-15T10:58:52;3.03;;;1.20;;
67861;SDS011;54665;51.462;6.698;2022-11-15T11:01:24;4.03;;;1.30;;
67861;SDS011;54665;51.462;6.698;2022-11-15T11:03:59;3.97;;;1.13;;
67861;SDS011;54665;51.462;6.698;2022-11-15T11:06:25;2.93;;;1.43;;
67861;SDS011;54665;51.462;6.698;2022-11-15T11:08:54;2.95;;;1.63;;
67861;SDS011;54665;51.462;6.698;2022-11-15T11:11:25;2.97;;;1.60;;
67861;SDS011;54665;51.462;6.698;2022-11-15T11:14:13;3.35;;;1.50;;
67861;SDS011;54665;51.462;6.698;2022-11-15T11:16:55;5.90;;;1.55;;
67861;SDS011;54665;51.462;6.698;2022-11-15T11:19:44;2.53;;;1.40;;
67861;SDS011;54665;51.462;6.698;2022-11-15T11:22:19;3.40;;;1.50;;
67861;SDS011;54665;51.462;6.698;2022-11-15T11:24:56;4.57;;;1.77;;
67861;SDS011;54665;51.462;6.698;2022-11-15T11:30:09;3.00;;;1.38;;
67861;SDS011;54665;51.462;6.698;2022-11-15T11:35:46;3.17;;;1.30;;
67861;SDS011;54665;51.462;6.698;2022-11-15T11:44:16;2.50;;;1.10;;
67861;SDS011;54665;51.462;6.698;2022-11-15T11:54:48;3.40;;;1.20;;
67861;SDS011;54665;51.462;6.698;2022-11-15T12:02:54;3.55;;;1.10;;
67861;SDS011;54665;51.462;6.698;2022-11-15T12:05:44;3.77;;;1.20;;
67861;SDS011;54665;51.462;6.698;2022-11-15T12:08:27;2.95;;;1.08;;
67861;SDS011;54665;51.462;6.698;2022-11-15T12:11:03;3.08;;;1.30;;
67861;SDS011;54665;51.462;6.698;2022-11-15T12:13:35;3.47;;;1.20;;
67861;SDS011;54665;51.462;6.698;2022-11-15T12:16:04;3.50;;;1.30;;
67861;SDS011;54665;51.462;6.698;2022-11-15T12:18:36;3.47;;;1.40;;
67861;SDS011;54665;51.462;6.698;2022-11-15T12:21:07;2.95;;;1.40;;
67861;SDS011;54665;51.462;6.698;2022-11-15T12:23:45;4.13;;;1.05;;
67861;SDS011;54665;51.462;6.698;2022-11-15T12:26:36;3.88;;;1.08;;
67861;SDS011;54665;51.462;6.698;2022-11-15T12:29:05;1.95;;;0.73;;
67861;SDS011;54665;51.462;6.698;2022-11-15T12:31:39;2.33;;;0.80;;
67861;SDS011;54665;51.462;6.698;2022-11-15T12:36:44;1.90;;;0.70;;
67861;SDS011;54665;51.462;6.698;2022-11-15T12:39:10;3.30;;;0.70;;
67861;SDS011;54665;51.462;6.698;2022-11-15T12:41:41;3.67;;;0.80;;
67861;SDS011;54665;51.462;6.698;2022-11-15T13:04:48;2.55;;;0.80;;
67861;SDS011;54665;51.462;6.698;2022-11-15T13:12:52;4.50;;;0.70;;
67861;SDS011;54665;51.462;6.698;2022-11-15T13:20:52;1.45;;;0.50;;
67861;SDS011;54665;51.462;6.698;2022-11-15T13:23:17;1.87;;;0.80;;
67861;SDS011;54665;51.462;6.698;2022-11-15T13:25:52;2.57;;;0.70;;
67861;SDS011;54665;51.462;6.698;2022-11-15T13:28:35;1.85;;;0.40;;
67861;SDS011;54665;51.462;6.698;2022-11-15T13:33:47;2.30;;;0.53;;
67861;SDS011;54665;51.462;6.698;2022-11-15T13:38:42;2.67;;;0.63;;
67861;SDS011;54665;51.462;6.698;2022-11-15T13:41:20;4.20;;;0.60;;
67861;SDS011;54665;51.462;6.698;2022-11-15T13:43:48;3.83;;;0.70;;
67861;SDS011;54665;51.462;6.698;2022-11-15T13:46:22;1.45;;;0.50;;
67861;SDS011;54665;51.462;6.698;2022-11-15T13:48:59;2.80;;;0.60;;
67861;SDS011;54665;51.462;6.698;2022-11-15T13:51:33;3.10;;;0.60;;
67861;SDS011;54665;51.462;6.698;2022-11-15T13:56:40;3.70;;;0.80;;
67861;SDS011;54665;51.462;6.698;2022-11-15T13:59:25;3.83;;;0.70;;
67861;SDS011;54665;51.462;6.698;2022-11-15T14:01:56;3.97;;;0.70;;
67861;SDS011;54665;51.462;6.698;2022-11-15T14:04:25;3.03;;;0.77;;
67861;SDS011;54665;51.462;6.698;2022-11-15T14:06:57;3.85;;;0.73;;
67861;SDS011;54665;51.462;6.698;2022-11-15T14:09:29;4.60;;;0.87;;
67861;SDS011;54665;51.462;6.698;2022-11-15T14:11:59;2.15;;;0.60;;
67861;SDS011;54665;51.462;6.698;2022-11-15T14:14:26;2.15;;;0.77;;
67861;SDS011;54665;51.462;6.698;2022-11-15T14:16:54;5.22;;;0.70;;
67861;SDS011;54665;51.462;6.698;2022-11-15T14:28:15;2.38;;;0.80;;
67861;SDS011;54665;51.462;6.698;2022-11-15T14:30:56;4.18;;;1.00;;
67861;SDS011;54665;51.462;6.698;2022-11-15T14:33:30;3.15;;;0.60;;
67861;SDS011;54665;51.462;6.698;2022-11-15T14:36:10;2.45;;;0.80;;
67861;SDS011;54665;51.462;6.698;2022-11-15T14:38:37;4.67;;;0.90;;
67861;SDS011;54665;51.462;6.698;2022-11-15T14:41:02;2.65;;;1.00;;
67861;SDS011;54665;51.462;6.698;2022-11-15T14:43:28;4.07;;;1.40;;
67861;SDS011;54665;51.462;6.698;2022-11-15T14:45:54;6.95;;;1.90;;
67861;SDS011;54665;51.462;6.698;2022-11-15T14:48:19;7.40;;;1.67;;
67861;SDS011;54665;51.462;6.698;2022-11-15T14:50:45;6.30;;;2.07;;
67861;SDS011;54665;51.462;6.698;2022-11-15T14:53:17;5.40;;;1.87;;
67861;SDS011;54665;51.462;6.698;2022-11-15T14:55:43;5.78;;;1.80;;
67861;SDS011;54665;51.462;6.698;2022-11-15T14:58:09;9.90;;;2.33;;
67861;SDS011;54665;51.462;6.698;2022-11-15T15:00:35;7.33;;;2.37;;
67861;SDS011;54665;51.462;6.698;2022-11-15T15:03:01;7.05;;;2.42;;
67861;SDS011;54665;51.462;6.698;2022-11-15T15:05:32;7.50;;;2.40;;
67861;SDS011;54665;51.462;6.698;2022-11-15T15:08:00;8.60;;;2.60;;
67861;SDS011;54665;51.462;6.698;2022-11-15T15:10:29;9.07;;;3.00;;
67861;SDS011;54665;51.462;6.698;2022-11-15T15:12:57;11.82;;;2.80;;
67861;SDS011;54665;51.462;6.698;2022-11-15T15:15:27;8.73;;;2.77;;
67861;SDS011;54665;51.462;6.698;2022-11-15T15:17:57;7.45;;;2.33;;
67861;SDS011;54665;51.462;6.698;2022-11-15T15:20:22;5.93;;;2.17;;
67861;SDS011;54665;51.462;6.698;2022-11-15T15:22:47;5.70;;;1.90;;
67861;SDS011;54665;51.462;6.698;2022-11-15T15:25:30;6.43;;;1.75;;
67861;SDS011;54665;51.462;6.698;2022-11-15T15:27:58;4.63;;;1.50;;
67861;SDS011;54665;51.462;6.698;2022-11-15T15:30:24;7.68;;;1.90;;
67861;SDS011;54665;51.462;6.698;2022-11-15T15:32:50;4.70;;;1.70;;
67861;SDS011;54665;51.462;6.698;2022-11-15T15:35:16;4.30;;;1.50;;
67861;SDS011;54665;51.462;6.698;2022-11-15T15:37:43;4.00;;;1.75;;
67861;SDS011;54665;51.462;6.698;2022-11-15T15:40:10;4.80;;;1.90;;
67861;SDS011;54665;51.462;6.698;2022-11-15T15:42:39;3.63;;;1.83;;
67861;SDS011;54665;51.462;6.698;2022-11-15T15:45:04;5.10;;;1.80;;
67861;SDS011;54665;51.462;6.698;2022-11-15T15:47:30;5.30;;;1.90;;
67861;SDS011;54665;51.462;6.698;2022-11-15T15:49:56;5.70;;;2.00;;
67861;SDS011;54665;51.462;6.698;2022-11-15T15:52:21;4.13;;;1.70;;
67861;SDS011;54665;51.462;6.698;2022-11-15T15:54:46;3.53;;;1.97;;
67861;SDS011;54665;51.462;6.698;2022-11-15T15:57:12;3.37;;;1.77;;
67861;SDS011;54665;51.462;6.698;2022-11-15T15:59:38;6.30;;;2.10;;
67861;SDS011;54665;51.462;6.698;2022-11-15T16:02:04;4.23;;;1.77;;
67861;SDS011;54665;51.462;6.698;2022-11-15T16:04:29;4.10;;;1.70;;
67861;SDS011;54665;51.462;6.698;2022-11-15T16:06:58;5.37;;;1.83;;
67861;SDS011;54665;51.462;6.698;2022-11-15T16:09:25;3.78;;;1.88;;
67861;SDS011;54665;51.462;6.698;2022-11-15T16:12:09;4.45;;;1.80;;
67861;SDS011;54665;51.462;6.698;2022-11-15T16:14:34;4.50;;;2.03;;
67861;SDS011;54665;51.462;6.698;2022-11-15T16:17:00;4.13;;;2.00;;
67861;SDS011;54665;51.462;6.698;2022-11-15T16:19:25;4.15;;;2.15;;
67861;SDS011;54665;51.462;6.698;2022-11-15T16:21:51;4.00;;;2.10;;
67861;SDS011;54665;51.462;6.698;2022-11-15T16:24:20;5.03;;;2.10;;
67861;SDS011;54665;51.462;6.698;2022-11-15T16:26:46;7.05;;;1.98;;
67861;SDS011;54665;51.462;6.698;2022-11-15T16:29:12;3.75;;;1.70;;
67861;SDS011;54665;51.462;6.698;2022-11-15T16:31:37;3.37;;;1.80;;
67861;SDS011;54665;51.462;6.698;2022-11-15T16:34:03;4.00;;;1.70;;
67861;SDS011;54665;51.462;6.698;2022-11-15T16:36:30;5.10;;;1.63;;
67861;SDS011;54665;51.462;6.698;2022-11-15T16:38:57;7.38;;;1.60;;
67861;SDS011;54665;51.462;6.698;2022-11-15T16:41:23;3.20;;;1.30;;
67861;SDS011;54665;51.462;6.698;2022-11-15T16:43:49;3.00;;;1.70;;
67861;SDS011;54665;51.462;6.698;2022-11-15T16:46:18;3.67;;;1.53;;
67861;SDS011;54665;51.462;6.698;2022-11-15T16:48:44;3.10;;;1.70;;
67861;SDS011;54665;51.462;6.698;2022-11-15T16:51:10;5.45;;;2.03;;
67861;SDS011;54665;51.462;6.698;2022-11-15T16:53:35;4.43;;;1.80;;
67861;SDS011;54665;51.462;6.698;2022-11-15T16:56:01;4.10;;;1.95;;
67861;SDS011;54665;51.462;6.698;2022-11-15T16:58:26;4.77;;;2.07;;
67861;SDS011;54665;51.462;6.698;2022-11-15T17:00:52;3.93;;;1.97;;
67861;SDS011;54665;51.462;6.698;2022-11-15T17:03:19;4.90;;;2.30;;
67861;SDS011;54665;51.462;6.698;2022-11-15T17:05:44;4.35;;;1.73;;
67861;SDS011;54665;51.462;6.698;2022-11-15T17:08:10;3.90;;;2.17;;
67861;SDS011;54665;51.462;6.698;2022-11-15T17:10:37;6.03;;;2.30;;
67861;SDS011;54665;51.462;6.698;2022-11-15T17:13:03;4.65;;;2.03;;
67861;SDS011;54665;51.462;6.698;2022-11-15T17:15:29;6.27;;;2.37;;
67861;SDS011;54665;51.462;6.698;2022-11-15T17:17:54;3.40;;;1.80;;
67861;SDS011;54665;51.462;6.698;2022-11-15T17:20:21;4.90;;;2.30;;
67861;SDS011;54665;51.462;6.698;2022-11-15T17:22:48;5.63;;;2.30;;
67861;SDS011;54665;51.462;6.698;2022-11-15T17:25:13;7.82;;;2.67;;
67861;SDS011;54665;51.462;6.698;2022-11-15T17:27:39;4.37;;;2.20;;
67861;SDS011;54665;51.462;6.698;2022-11-15T17:30:05;2.33;;;1.50;;
67861;SDS011;54665;51.462;6.698;2022-11-15T17:32:31;3.90;;;1.80;;
67861;SDS011;54665;51.462;6.698;2022-11-15T17:34:56;4.00;;;2.03;;
67861;SDS011;54665;51.462;6.698;2022-11-15T17:37:22;3.15;;;1.70;;
67861;SDS011;54665;51.462;6.698;2022-11-15T17:39:47;4.07;;;1.60;;
67861;SDS011;54665;51.462;6.698;2022-11-15T17:42:13;4.00;;;1.70;;
67861;SDS011;54665;51.462;6.698;2022-11-15T17:44:38;4.43;;;1.60;;
67861;SDS011;54665;51.462;6.698;2022-11-15T17:47:03;2.70;;;1.33;;
67861;SDS011;54665;51.462;6.698;2022-11-15T17:49:29;3.97;;;1.50;;
67861;SDS011;54665;51.462;6.698;2022-11-15T17:51:54;2.87;;;1.53;;
67861;SDS011;54665;51.462;6.698;2022-11-15T17:54:20;3.00;;;1.60;;
67861;SDS011;54665;51.462;6.698;2022-11-15T17:56:45;2.83;;;1.50;;
67861;SDS011;54665;51.462;6.698;2022-11-15T17:59:10;3.33;;;1.47;;